sensor_id;sensor_type;location;lat;lon;timestamp;P1;durP1;ratioP1;P2;durP2;ratioP2
22007;SDS011;11168;56.976;24.168;2023-08-31T00:02:03;14.85;;;9.60;;
22007;SDS011;11168;56.976;24.168;2023-08-31T00:04:30;11.23;;;9.52;;
22007;SDS011;11168;56.976;24.168;2023-08-31T00:06:57;11.63;;;10.38;;
22007;SDS011;11168;56.976;24.168;2023-08-31T00:09:24;11.93;;;9.50;;
22007;SDS011;11168;56.976;24.168;2023-08-31T00:11:51;12.73;;;10.02;;
22007;SDS011;11168;56.976;24.168;2023-08-31T00:14:18;12.18;;;9.73;;
22007;SDS011;11168;56.976;24.168;2023-08-31T00:16:45;13.85;;;10.02;;
22007;SDS011;11168;56.976;24.168;2023-08-31T00:19:13;11.75;;;9.18;;
22007;SDS011;11168;56.976;24.168;2023-08-31T00:21:41;14.75;;;9.57;;
22007;SDS011;11168;56.976;24.168;2023-08-31T00:24:09;14.00;;;10.27;;
22007;SDS011;11168;56.976;24.168;2023-08-31T00:26:37;13.57;;;9.90;;
22007;SDS011;11168;56.976;24.168;2023-08-31T00:29:10;15.88;;;9.90;;
22007;SDS011;11168;56.976;24.168;2023-08-31T00:31:37;12.27;;;9.30;;
22007;SDS011;11168;56.976;24.168;2023-08-31T00:34:04;14.80;;;10.40;;
22007;SDS011;11168;56.976;24.168;2023-08-31T00:36:33;13.63;;;10.18;;
22007;SDS011;11168;56.976;24.168;2023-08-31T00:39:06;12.25;;;10.35;;
22007;SDS011;11168;56.976;24.168;2023-08-31T00:41:37;14.93;;;10.02;;
22007;SDS011;11168;56.976;24.168;2023-08-31T00:44:04;12.13;;;10.10;;
22007;SDS011;11168;56.976;24.168;2023-08-31T00:46:31;12.52;;;10.52;;
22007;SDS011;11168;56.976;24.168;2023-08-31T00:48:59;14.55;;;10.43;;
22007;SDS011;11168;56.976;24.168;2023-08-31T00:51:26;14.73;;;10.13;;
22007;SDS011;11168;56.976;24.168;2023-08-31T00:53:53;14.35;;;10.55;;
22007;SDS011;11168;56.976;24.168;2023-08-31T00:56:21;17.45;;;11.43;;
22007;SDS011;11168;56.976;24.168;2023-08-31T00:58:48;14.18;;;11.13;;
22007;SDS011;11168;56.976;24.168;2023-08-31T01:09:39;15.68;;;10.93;;
22007;SDS011;11168;56.976;24.168;2023-08-31T01:15:20;16.48;;;11.75;;
22007;SDS011;11168;56.976;24.168;2023-08-31T01:17:50;18.02;;;11.98;;
22007;SDS011;11168;56.976;24.168;2023-08-31T01:23:19;14.50;;;11.38;;
22007;SDS011;11168;56.976;24.168;2023-08-31T01:25:48;13.02;;;11.55;;
22007;SDS011;11168;56.976;24.168;2023-08-31T01:28:15;17.27;;;11.95;;
22007;SDS011;11168;56.976;24.168;2023-08-31T01:30:42;16.08;;;12.05;;
22007;SDS011;11168;56.976;24.168;2023-08-31T01:33:09;15.85;;;12.25;;
22007;SDS011;11168;56.976;24.168;2023-08-31T01:35:40;16.50;;;12.00;;
22007;SDS011;11168;56.976;24.168;2023-08-31T01:38:12;16.15;;;11.85;;
22007;SDS011;11168;56.976;24.168;2023-08-31T01:40:48;13.80;;;12.38;;
22007;SDS011;11168;56.976;24.168;2023-08-31T01:43:22;18.13;;;12.95;;
22007;SDS011;11168;56.976;24.168;2023-08-31T01:45:50;18.90;;;12.40;;
22007;SDS011;11168;56.976;24.168;2023-08-31T01:48:17;15.73;;;12.25;;
22007;SDS011;11168;56.976;24.168;2023-08-31T01:50:44;15.30;;;12.88;;
22007;SDS011;11168;56.976;24.168;2023-08-31T01:53:11;19.10;;;13.25;;
22007;SDS011;11168;56.976;24.168;2023-08-31T01:55:39;16.83;;;12.68;;
22007;SDS011;11168;56.976;24.168;2023-08-31T01:58:06;15.10;;;12.50;;
22007;SDS011;11168;56.976;24.168;2023-08-31T02:00:33;17.38;;;13.32;;
22007;SDS011;11168;56.976;24.168;2023-08-31T02:03:01;17.50;;;12.68;;
22007;SDS011;11168;56.976;24.168;2023-08-31T02:05:29;19.00;;;12.88;;
22007;SDS011;11168;56.976;24.168;2023-08-31T02:07:56;15.60;;;12.52;;
22007;SDS011;11168;56.976;24.168;2023-08-31T02:10:23;18.83;;;13.15;;
22007;SDS011;11168;56.976;24.168;2023-08-31T02:12:50;16.63;;;13.00;;
22007;SDS011;11168;56.976;24.168;2023-08-31T02:15:17;17.70;;;14.02;;
22007;SDS011;11168;56.976;24.168;2023-08-31T02:17:44;15.48;;;13.52;;
22007;SDS011;11168;56.976;24.168;2023-08-31T02:20:11;18.65;;;13.23;;
22007;SDS011;11168;56.976;24.168;2023-08-31T02:22:40;17.00;;;13.80;;
22007;SDS011;11168;56.976;24.168;2023-08-31T02:25:07;17.85;;;13.68;;
22007;SDS011;11168;56.976;24.168;2023-08-31T02:27:34;18.40;;;14.18;;
22007;SDS011;11168;56.976;24.168;2023-08-31T02:30:01;18.40;;;14.60;;
22007;SDS011;11168;56.976;24.168;2023-08-31T02:32:31;19.58;;;14.15;;
22007;SDS011;11168;56.976;24.168;2023-08-31T02:34:58;20.23;;;14.45;;
22007;SDS011;11168;56.976;24.168;2023-08-31T02:37:25;16.88;;;13.45;;
22007;SDS011;11168;56.976;24.168;2023-08-31T02:39:52;19.92;;;13.93;;
22007;SDS011;11168;56.976;24.168;2023-08-31T02:42:19;19.33;;;14.07;;
22007;SDS011;11168;56.976;24.168;2023-08-31T02:44:46;19.25;;;14.60;;
22007;SDS011;11168;56.976;24.168;2023-08-31T02:49:44;21.63;;;13.55;;
22007;SDS011;11168;56.976;24.168;2023-08-31T02:52:11;18.02;;;14.63;;
22007;SDS011;11168;56.976;24.168;2023-08-31T02:54:38;17.55;;;14.38;;
22007;SDS011;11168;56.976;24.168;2023-08-31T02:57:05;18.02;;;14.40;;
22007;SDS011;11168;56.976;24.168;2023-08-31T02:59:33;20.10;;;14.65;;
22007;SDS011;11168;56.976;24.168;2023-08-31T03:02:05;17.38;;;13.95;;
22007;SDS011;11168;56.976;24.168;2023-08-31T03:04:32;18.85;;;15.25;;
22007;SDS011;11168;56.976;24.168;2023-08-31T03:06:59;17.30;;;15.35;;
22007;SDS011;11168;56.976;24.168;2023-08-31T03:09:26;21.55;;;15.68;;
22007;SDS011;11168;56.976;24.168;2023-08-31T03:11:53;21.73;;;15.60;;
22007;SDS011;11168;56.976;24.168;2023-08-31T03:14:19;19.90;;;15.57;;
22007;SDS011;11168;56.976;24.168;2023-08-31T03:16:46;22.02;;;15.88;;
22007;SDS011;11168;56.976;24.168;2023-08-31T03:19:15;23.92;;;16.63;;
22007;SDS011;11168;56.976;24.168;2023-08-31T03:21:42;26.60;;;17.73;;
22007;SDS011;11168;56.976;24.168;2023-08-31T03:24:09;24.58;;;18.08;;
22007;SDS011;11168;56.976;24.168;2023-08-31T03:26:36;24.27;;;17.10;;
22007;SDS011;11168;56.976;24.168;2023-08-31T03:29:03;24.30;;;16.80;;
22007;SDS011;11168;56.976;24.168;2023-08-31T03:31:30;19.35;;;16.17;;
22007;SDS011;11168;56.976;24.168;2023-08-31T03:33:58;24.77;;;18.50;;
22007;SDS011;11168;56.976;24.168;2023-08-31T03:36:25;26.30;;;18.67;;
22007;SDS011;11168;56.976;24.168;2023-08-31T03:38:52;21.83;;;17.52;;
22007;SDS011;11168;56.976;24.168;2023-08-31T03:41:19;23.52;;;16.73;;
22007;SDS011;11168;56.976;24.168;2023-08-31T03:43:46;24.48;;;18.58;;
22007;SDS011;11168;56.976;24.168;2023-08-31T03:46:13;24.70;;;18.17;;
22007;SDS011;11168;56.976;24.168;2023-08-31T03:48:40;27.67;;;18.17;;
22007;SDS011;11168;56.976;24.168;2023-08-31T03:51:07;23.13;;;19.58;;
22007;SDS011;11168;56.976;24.168;2023-08-31T03:53:34;23.98;;;18.80;;
22007;SDS011;11168;56.976;24.168;2023-08-31T03:56:00;23.92;;;17.92;;
22007;SDS011;11168;56.976;24.168;2023-08-31T03:58:28;23.08;;;17.50;;
22007;SDS011;11168;56.976;24.168;2023-08-31T04:00:55;20.02;;;16.70;;
22007;SDS011;11168;56.976;24.168;2023-08-31T04:03:21;24.90;;;17.73;;
22007;SDS011;11168;56.976;24.168;2023-08-31T04:05:54;23.60;;;16.77;;
22007;SDS011;11168;56.976;24.168;2023-08-31T04:08:21;21.65;;;17.17;;
22007;SDS011;11168;56.976;24.168;2023-08-31T04:10:48;18.65;;;15.90;;
22007;SDS011;11168;56.976;24.168;2023-08-31T04:13:16;22.83;;;16.45;;
22007;SDS011;11168;56.976;24.168;2023-08-31T04:15:43;21.70;;;16.65;;
22007;SDS011;11168;56.976;24.168;2023-08-31T04:18:10;20.83;;;15.88;;
22007;SDS011;11168;56.976;24.168;2023-08-31T04:20:37;20.63;;;15.68;;
22007;SDS011;11168;56.976;24.168;2023-08-31T04:23:05;19.08;;;15.15;;
22007;SDS011;11168;56.976;24.168;2023-08-31T04:25:32;17.58;;;14.60;;
22007;SDS011;11168;56.976;24.168;2023-08-31T04:27:59;21.52;;;13.68;;
22007;SDS011;11168;56.976;24.168;2023-08-31T04:30:27;20.45;;;14.45;;
22007;SDS011;11168;56.976;24.168;2023-08-31T04:32:54;16.42;;;13.57;;
22007;SDS011;11168;56.976;24.168;2023-08-31T04:35:21;16.10;;;13.32;;
22007;SDS011;11168;56.976;24.168;2023-08-31T04:37:48;19.40;;;13.18;;
22007;SDS011;11168;56.976;24.168;2023-08-31T04:40:15;16.23;;;12.90;;
22007;SDS011;11168;56.976;24.168;2023-08-31T04:42:42;15.43;;;12.32;;
22007;SDS011;11168;56.976;24.168;2023-08-31T04:45:09;18.77;;;13.02;;
22007;SDS011;11168;56.976;24.168;2023-08-31T04:47:38;16.77;;;12.65;;
22007;SDS011;11168;56.976;24.168;2023-08-31T04:50:06;16.80;;;11.93;;
22007;SDS011;11168;56.976;24.168;2023-08-31T04:52:34;14.07;;;11.77;;
22007;SDS011;11168;56.976;24.168;2023-08-31T04:55:01;11.05;;;8.98;;
22007;SDS011;11168;56.976;24.168;2023-08-31T04:57:30;12.30;;;9.63;;
22007;SDS011;11168;56.976;24.168;2023-08-31T04:59:57;13.95;;;9.93;;
22007;SDS011;11168;56.976;24.168;2023-08-31T05:02:24;12.60;;;9.20;;
22007;SDS011;11168;56.976;24.168;2023-08-31T05:04:51;11.65;;;9.10;;
22007;SDS011;11168;56.976;24.168;2023-08-31T05:07:20;11.00;;;8.15;;
22007;SDS011;11168;56.976;24.168;2023-08-31T05:09:49;6.50;;;5.30;;
22007;SDS011;11168;56.976;24.168;2023-08-31T05:12:16;6.63;;;6.03;;
22007;SDS011;11168;56.976;24.168;2023-08-31T05:14:44;8.00;;;5.70;;
22007;SDS011;11168;56.976;24.168;2023-08-31T05:17:11;5.20;;;4.70;;
22007;SDS011;11168;56.976;24.168;2023-08-31T05:19:38;5.88;;;5.00;;
22007;SDS011;11168;56.976;24.168;2023-08-31T05:22:05;4.55;;;4.03;;
22007;SDS011;11168;56.976;24.168;2023-08-31T05:24:32;4.85;;;4.30;;
22007;SDS011;11168;56.976;24.168;2023-08-31T05:26:59;5.18;;;4.05;;
22007;SDS011;11168;56.976;24.168;2023-08-31T05:29:26;4.63;;;4.22;;
22007;SDS011;11168;56.976;24.168;2023-08-31T05:31:53;6.10;;;5.03;;
22007;SDS011;11168;56.976;24.168;2023-08-31T05:34:21;7.47;;;5.70;;
22007;SDS011;11168;56.976;24.168;2023-08-31T05:36:52;7.20;;;5.43;;
22007;SDS011;11168;56.976;24.168;2023-08-31T05:39:18;6.90;;;5.38;;
22007;SDS011;11168;56.976;24.168;2023-08-31T05:41:46;11.48;;;9.10;;
22007;SDS011;11168;56.976;24.168;2023-08-31T05:44:13;15.52;;;11.52;;
22007;SDS011;11168;56.976;24.168;2023-08-31T05:46:40;19.08;;;11.90;;
22007;SDS011;11168;56.976;24.168;2023-08-31T05:49:07;10.35;;;8.43;;
22007;SDS011;11168;56.976;24.168;2023-08-31T05:51:35;12.15;;;8.20;;
22007;SDS011;11168;56.976;24.168;2023-08-31T05:54:02;14.25;;;7.47;;
22007;SDS011;11168;56.976;24.168;2023-08-31T05:56:29;16.52;;;8.20;;
22007;SDS011;11168;56.976;24.168;2023-08-31T05:58:57;15.70;;;8.48;;
22007;SDS011;11168;56.976;24.168;2023-08-31T06:01:24;15.77;;;8.32;;
22007;SDS011;11168;56.976;24.168;2023-08-31T06:03:51;17.95;;;7.68;;
22007;SDS011;11168;56.976;24.168;2023-08-31T06:06:18;14.15;;;6.97;;
22007;SDS011;11168;56.976;24.168;2023-08-31T06:08:45;11.68;;;7.70;;
22007;SDS011;11168;56.976;24.168;2023-08-31T06:11:13;18.90;;;8.35;;
22007;SDS011;11168;56.976;24.168;2023-08-31T06:13:40;18.23;;;8.80;;
22007;SDS011;11168;56.976;24.168;2023-08-31T06:16:07;18.30;;;8.57;;
22007;SDS011;11168;56.976;24.168;2023-08-31T06:18:37;15.25;;;6.93;;
22007;SDS011;11168;56.976;24.168;2023-08-31T06:21:04;13.57;;;6.90;;
22007;SDS011;11168;56.976;24.168;2023-08-31T06:23:31;12.63;;;6.00;;
22007;SDS011;11168;56.976;24.168;2023-08-31T06:25:58;12.77;;;6.20;;
22007;SDS011;11168;56.976;24.168;2023-08-31T06:28:25;13.45;;;6.68;;
22007;SDS011;11168;56.976;24.168;2023-08-31T06:30:53;12.10;;;6.60;;
22007;SDS011;11168;56.976;24.168;2023-08-31T06:33:21;14.65;;;7.50;;
22007;SDS011;11168;56.976;24.168;2023-08-31T06:35:48;10.93;;;7.45;;
22007;SDS011;11168;56.976;24.168;2023-08-31T06:38:18;12.13;;;8.35;;
22007;SDS011;11168;56.976;24.168;2023-08-31T06:40:46;12.30;;;8.10;;
22007;SDS011;11168;56.976;24.168;2023-08-31T06:43:15;13.30;;;8.45;;
22007;SDS011;11168;56.976;24.168;2023-08-31T06:45:42;13.20;;;8.27;;
22007;SDS011;11168;56.976;24.168;2023-08-31T06:48:09;13.02;;;9.65;;
22007;SDS011;11168;56.976;24.168;2023-08-31T06:50:36;10.43;;;8.95;;
22007;SDS011;11168;56.976;24.168;2023-08-31T06:53:04;12.90;;;9.13;;
22007;SDS011;11168;56.976;24.168;2023-08-31T06:55:32;15.40;;;9.75;;
22007;SDS011;11168;56.976;24.168;2023-08-31T06:58:01;15.82;;;10.00;;
22007;SDS011;11168;56.976;24.168;2023-08-31T07:00:30;12.85;;;9.85;;
22007;SDS011;11168;56.976;24.168;2023-08-31T07:02:59;15.48;;;10.07;;
22007;SDS011;11168;56.976;24.168;2023-08-31T07:05:26;16.52;;;11.13;;
22007;SDS011;11168;56.976;24.168;2023-08-31T07:07:55;15.15;;;10.15;;
22007;SDS011;11168;56.976;24.168;2023-08-31T07:10:22;14.20;;;10.38;;
22007;SDS011;11168;56.976;24.168;2023-08-31T07:12:50;13.68;;;10.10;;
22007;SDS011;11168;56.976;24.168;2023-08-31T07:15:18;16.90;;;10.30;;
22007;SDS011;11168;56.976;24.168;2023-08-31T07:17:46;14.23;;;9.07;;
22007;SDS011;11168;56.976;24.168;2023-08-31T07:20:13;11.85;;;8.70;;
22007;SDS011;11168;56.976;24.168;2023-08-31T07:22:40;13.23;;;8.60;;
22007;SDS011;11168;56.976;24.168;2023-08-31T07:25:07;15.88;;;9.00;;
22007;SDS011;11168;56.976;24.168;2023-08-31T07:27:35;14.45;;;9.02;;
22007;SDS011;11168;56.976;24.168;2023-08-31T07:30:02;12.07;;;8.25;;
22007;SDS011;11168;56.976;24.168;2023-08-31T07:32:30;15.10;;;11.18;;
22007;SDS011;11168;56.976;24.168;2023-08-31T07:35:01;10.45;;;8.05;;
22007;SDS011;11168;56.976;24.168;2023-08-31T07:37:32;9.80;;;7.82;;
22007;SDS011;11168;56.976;24.168;2023-08-31T07:40:01;10.40;;;6.75;;
22007;SDS011;11168;56.976;24.168;2023-08-31T07:42:32;8.88;;;7.93;;
22007;SDS011;11168;56.976;24.168;2023-08-31T07:44:59;7.57;;;6.88;;
22007;SDS011;11168;56.976;24.168;2023-08-31T07:47:26;8.50;;;6.68;;
22007;SDS011;11168;56.976;24.168;2023-08-31T07:49:54;9.63;;;7.00;;
22007;SDS011;11168;56.976;24.168;2023-08-31T07:52:21;8.70;;;6.90;;
22007;SDS011;11168;56.976;24.168;2023-08-31T07:54:50;11.80;;;6.97;;
22007;SDS011;11168;56.976;24.168;2023-08-31T07:57:17;7.30;;;6.50;;
22007;SDS011;11168;56.976;24.168;2023-08-31T07:59:44;8.32;;;6.50;;
22007;SDS011;11168;56.976;24.168;2023-08-31T08:02:14;5.93;;;5.35;;
22007;SDS011;11168;56.976;24.168;2023-08-31T08:04:42;6.43;;;5.82;;
22007;SDS011;11168;56.976;24.168;2023-08-31T08:07:12;7.32;;;6.10;;
22007;SDS011;11168;56.976;24.168;2023-08-31T08:09:40;5.53;;;5.03;;
22007;SDS011;11168;56.976;24.168;2023-08-31T08:12:07;6.25;;;5.40;;
22007;SDS011;11168;56.976;24.168;2023-08-31T08:14:34;7.50;;;5.40;;
22007;SDS011;11168;56.976;24.168;2023-08-31T08:17:03;5.40;;;4.95;;
22007;SDS011;11168;56.976;24.168;2023-08-31T08:19:32;5.07;;;4.57;;
22007;SDS011;11168;56.976;24.168;2023-08-31T08:22:00;5.30;;;4.90;;
22007;SDS011;11168;56.976;24.168;2023-08-31T08:24:27;4.18;;;3.78;;
22007;SDS011;11168;56.976;24.168;2023-08-31T08:26:54;5.45;;;4.10;;
22007;SDS011;11168;56.976;24.168;2023-08-31T08:29:21;4.85;;;4.30;;
22007;SDS011;11168;56.976;24.168;2023-08-31T08:31:49;4.18;;;3.78;;
22007;SDS011;11168;56.976;24.168;2023-08-31T08:34:18;4.83;;;4.10;;
22007;SDS011;11168;56.976;24.168;2023-08-31T08:36:45;4.97;;;3.70;;
22007;SDS011;11168;56.976;24.168;2023-08-31T08:39:14;3.92;;;3.50;;
22007;SDS011;11168;56.976;24.168;2023-08-31T08:41:41;4.13;;;3.65;;
22007;SDS011;11168;56.976;24.168;2023-08-31T08:44:10;3.53;;;3.22;;
22007;SDS011;11168;56.976;24.168;2023-08-31T08:46:41;4.00;;;3.60;;
22007;SDS011;11168;56.976;24.168;2023-08-31T08:49:08;4.43;;;3.40;;
22007;SDS011;11168;56.976;24.168;2023-08-31T08:51:37;5.18;;;3.42;;
22007;SDS011;11168;56.976;24.168;2023-08-31T08:54:04;4.40;;;3.33;;
22007;SDS011;11168;56.976;24.168;2023-08-31T08:56:31;3.55;;;3.20;;
22007;SDS011;11168;56.976;24.168;2023-08-31T08:58:59;4.03;;;3.20;;
22007;SDS011;11168;56.976;24.168;2023-08-31T09:01:27;5.43;;;3.50;;
22007;SDS011;11168;56.976;24.168;2023-08-31T09:03:55;5.35;;;3.20;;
22007;SDS011;11168;56.976;24.168;2023-08-31T09:06:22;3.22;;;2.90;;
22007;SDS011;11168;56.976;24.168;2023-08-31T09:08:56;3.25;;;3.03;;
22007;SDS011;11168;56.976;24.168;2023-08-31T09:11:24;4.32;;;2.75;;
22007;SDS011;11168;56.976;24.168;2023-08-31T09:13:51;3.58;;;2.70;;
22007;SDS011;11168;56.976;24.168;2023-08-31T09:16:25;3.00;;;2.70;;
22007;SDS011;11168;56.976;24.168;2023-08-31T09:18:58;3.10;;;2.80;;
22007;SDS011;11168;56.976;24.168;2023-08-31T09:21:34;5.93;;;2.70;;
22007;SDS011;11168;56.976;24.168;2023-08-31T09:24:04;2.33;;;2.20;;
22007;SDS011;11168;56.976;24.168;2023-08-31T09:26:38;2.65;;;2.45;;
22007;SDS011;11168;56.976;24.168;2023-08-31T09:29:16;2.42;;;2.22;;
22007;SDS011;11168;56.976;24.168;2023-08-31T09:31:44;2.33;;;2.10;;
22007;SDS011;11168;56.976;24.168;2023-08-31T09:34:12;2.45;;;2.25;;
22007;SDS011;11168;56.976;24.168;2023-08-31T09:36:40;2.35;;;2.15;;
22007;SDS011;11168;56.976;24.168;2023-08-31T09:39:08;2.10;;;1.90;;
22007;SDS011;11168;56.976;24.168;2023-08-31T09:41:57;2.35;;;2.13;;
22007;SDS011;11168;56.976;24.168;2023-08-31T09:44:25;3.10;;;2.28;;
22007;SDS011;11168;56.976;24.168;2023-08-31T09:46:52;3.20;;;2.90;;
22007;SDS011;11168;56.976;24.168;2023-08-31T09:49:20;3.75;;;2.67;;
22007;SDS011;11168;56.976;24.168;2023-08-31T09:51:48;4.60;;;2.70;;
22007;SDS011;11168;56.976;24.168;2023-08-31T09:54:17;2.58;;;2.38;;
22007;SDS011;11168;56.976;24.168;2023-08-31T09:56:46;2.50;;;2.30;;
22007;SDS011;11168;56.976;24.168;2023-08-31T09:59:14;2.22;;;2.00;;
22007;SDS011;11168;56.976;24.168;2023-08-31T10:01:44;2.40;;;2.20;;
22007;SDS011;11168;56.976;24.168;2023-08-31T10:04:13;2.38;;;2.15;;
22007;SDS011;11168;56.976;24.168;2023-08-31T10:06:40;2.88;;;2.33;;
22007;SDS011;11168;56.976;24.168;2023-08-31T10:09:09;2.28;;;2.00;;
22007;SDS011;11168;56.976;24.168;2023-08-31T10:11:37;3.72;;;1.95;;
22007;SDS011;11168;56.976;24.168;2023-08-31T10:14:05;2.25;;;2.05;;
22007;SDS011;11168;56.976;24.168;2023-08-31T10:16:34;4.55;;;2.20;;
22007;SDS011;11168;56.976;24.168;2023-08-31T10:19:03;2.28;;;2.08;;
22007;SDS011;11168;56.976;24.168;2023-08-31T10:21:31;4.30;;;1.70;;
22007;SDS011;11168;56.976;24.168;2023-08-31T10:24:00;3.30;;;1.80;;
22007;SDS011;11168;56.976;24.168;2023-08-31T10:26:30;1.80;;;1.70;;
22007;SDS011;11168;56.976;24.168;2023-08-31T10:28:58;2.03;;;1.92;;
22007;SDS011;11168;56.976;24.168;2023-08-31T10:31:31;4.93;;;1.73;;
22007;SDS011;11168;56.976;24.168;2023-08-31T10:34:00;2.35;;;1.80;;
22007;SDS011;11168;56.976;24.168;2023-08-31T10:36:45;3.20;;;2.03;;
22007;SDS011;11168;56.976;24.168;2023-08-31T10:39:23;2.30;;;1.90;;
22007;SDS011;11168;56.976;24.168;2023-08-31T10:41:56;2.10;;;1.90;;
22007;SDS011;11168;56.976;24.168;2023-08-31T10:44:27;2.58;;;2.17;;
22007;SDS011;11168;56.976;24.168;2023-08-31T10:47:02;1.98;;;1.88;;
22007;SDS011;11168;56.976;24.168;2023-08-31T10:49:30;3.30;;;1.98;;
22007;SDS011;11168;56.976;24.168;2023-08-31T10:52:18;4.40;;;1.88;;
22007;SDS011;11168;56.976;24.168;2023-08-31T10:54:51;2.05;;;1.70;;
22007;SDS011;11168;56.976;24.168;2023-08-31T10:57:30;2.80;;;1.80;;
22007;SDS011;11168;56.976;24.168;2023-08-31T10:59:58;2.20;;;2.00;;
22007;SDS011;11168;56.976;24.168;2023-08-31T11:05:02;4.55;;;2.00;;
22007;SDS011;11168;56.976;24.168;2023-08-31T11:07:32;1.70;;;1.60;;
22007;SDS011;11168;56.976;24.168;2023-08-31T11:10:13;1.83;;;1.73;;
22007;SDS011;11168;56.976;24.168;2023-08-31T11:12:44;2.77;;;1.67;;
22007;SDS011;11168;56.976;24.168;2023-08-31T11:15:17;2.15;;;1.95;;
22007;SDS011;11168;56.976;24.168;2023-08-31T11:17:45;1.95;;;1.58;;
22007;SDS011;11168;56.976;24.168;2023-08-31T11:20:17;3.85;;;1.58;;
22007;SDS011;11168;56.976;24.168;2023-08-31T11:22:49;4.03;;;2.00;;
22007;SDS011;11168;56.976;24.168;2023-08-31T11:25:17;1.60;;;1.50;;
22007;SDS011;11168;56.976;24.168;2023-08-31T11:27:57;3.03;;;1.73;;
22007;SDS011;11168;56.976;24.168;2023-08-31T11:30:26;4.10;;;1.70;;
22007;SDS011;11168;56.976;24.168;2023-08-31T11:33:02;2.70;;;1.80;;
22007;SDS011;11168;56.976;24.168;2023-08-31T11:35:32;3.70;;;1.92;;
22007;SDS011;11168;56.976;24.168;2023-08-31T11:38:03;1.88;;;1.63;;
22007;SDS011;11168;56.976;24.168;2023-08-31T11:40:30;2.15;;;1.80;;
22007;SDS011;11168;56.976;24.168;2023-08-31T11:42:58;2.45;;;1.88;;
22007;SDS011;11168;56.976;24.168;2023-08-31T11:45:30;2.70;;;1.90;;
22007;SDS011;11168;56.976;24.168;2023-08-31T11:47:57;2.13;;;1.90;;
22007;SDS011;11168;56.976;24.168;2023-08-31T11:50:25;2.17;;;1.80;;
22007;SDS011;11168;56.976;24.168;2023-08-31T11:52:54;4.18;;;2.10;;
22007;SDS011;11168;56.976;24.168;2023-08-31T11:55:22;4.00;;;2.03;;
22007;SDS011;11168;56.976;24.168;2023-08-31T11:57:53;2.17;;;1.98;;
22007;SDS011;11168;56.976;24.168;2023-08-31T12:00:21;2.67;;;1.90;;
22007;SDS011;11168;56.976;24.168;2023-08-31T12:02:58;1.98;;;1.80;;
22007;SDS011;11168;56.976;24.168;2023-08-31T12:05:27;3.13;;;2.00;;
22007;SDS011;11168;56.976;24.168;2023-08-31T12:07:55;2.47;;;2.17;;
22007;SDS011;11168;56.976;24.168;2023-08-31T12:10:24;1.85;;;1.75;;
22007;SDS011;11168;56.976;24.168;2023-08-31T12:12:52;2.05;;;1.40;;
22007;SDS011;11168;56.976;24.168;2023-08-31T12:15:22;2.70;;;1.83;;
22007;SDS011;11168;56.976;24.168;2023-08-31T12:17:49;1.95;;;1.77;;
22007;SDS011;11168;56.976;24.168;2023-08-31T12:20:24;4.57;;;2.25;;
22007;SDS011;11168;56.976;24.168;2023-08-31T12:22:53;2.22;;;1.63;;
22007;SDS011;11168;56.976;24.168;2023-08-31T12:25:23;2.67;;;1.75;;
22007;SDS011;11168;56.976;24.168;2023-08-31T12:27:50;1.60;;;1.50;;
22007;SDS011;11168;56.976;24.168;2023-08-31T12:30:17;2.72;;;1.80;;
22007;SDS011;11168;56.976;24.168;2023-08-31T12:32:44;2.60;;;1.90;;
22007;SDS011;11168;56.976;24.168;2023-08-31T12:35:11;2.40;;;1.90;;
22007;SDS011;11168;56.976;24.168;2023-08-31T12:37:40;5.20;;;2.15;;
22007;SDS011;11168;56.976;24.168;2023-08-31T12:40:07;2.92;;;1.92;;
22007;SDS011;11168;56.976;24.168;2023-08-31T12:42:36;2.35;;;1.92;;
22007;SDS011;11168;56.976;24.168;2023-08-31T12:45:03;3.97;;;2.30;;
22007;SDS011;11168;56.976;24.168;2023-08-31T12:47:34;3.80;;;2.27;;
22007;SDS011;11168;56.976;24.168;2023-08-31T12:50:01;1.95;;;1.85;;
22007;SDS011;11168;56.976;24.168;2023-08-31T12:52:29;2.78;;;2.05;;
22007;SDS011;11168;56.976;24.168;2023-08-31T12:54:56;1.90;;;1.80;;
22007;SDS011;11168;56.976;24.168;2023-08-31T12:57:26;2.15;;;1.95;;
22007;SDS011;11168;56.976;24.168;2023-08-31T12:59:53;2.88;;;2.00;;
22007;SDS011;11168;56.976;24.168;2023-08-31T13:02:20;3.00;;;1.70;;
22007;SDS011;11168;56.976;24.168;2023-08-31T13:04:47;2.33;;;2.00;;
22007;SDS011;11168;56.976;24.168;2023-08-31T13:07:15;5.35;;;2.00;;
22007;SDS011;11168;56.976;24.168;2023-08-31T13:09:42;2.22;;;2.00;;
22007;SDS011;11168;56.976;24.168;2023-08-31T13:12:11;3.15;;;2.08;;
22007;SDS011;11168;56.976;24.168;2023-08-31T13:14:38;1.80;;;1.70;;
22007;SDS011;11168;56.976;24.168;2023-08-31T13:17:06;2.20;;;1.67;;
22007;SDS011;11168;56.976;24.168;2023-08-31T13:19:33;3.60;;;2.10;;
22007;SDS011;11168;56.976;24.168;2023-08-31T13:22:00;3.42;;;2.10;;
22007;SDS011;11168;56.976;24.168;2023-08-31T13:24:27;2.15;;;1.90;;
22007;SDS011;11168;56.976;24.168;2023-08-31T13:26:54;2.95;;;1.90;;
22007;SDS011;11168;56.976;24.168;2023-08-31T13:29:21;2.00;;;1.63;;
22007;SDS011;11168;56.976;24.168;2023-08-31T13:31:48;3.03;;;2.13;;
22007;SDS011;11168;56.976;24.168;2023-08-31T13:34:15;2.10;;;2.00;;
22007;SDS011;11168;56.976;24.168;2023-08-31T13:36:42;2.88;;;2.17;;
22007;SDS011;11168;56.976;24.168;2023-08-31T13:39:09;3.60;;;2.38;;
22007;SDS011;11168;56.976;24.168;2023-08-31T13:41:39;2.92;;;2.60;;
22007;SDS011;11168;56.976;24.168;2023-08-31T13:44:07;4.60;;;3.15;;
22007;SDS011;11168;56.976;24.168;2023-08-31T13:46:34;2.72;;;2.53;;
22007;SDS011;11168;56.976;24.168;2023-08-31T13:49:02;3.35;;;2.90;;
22007;SDS011;11168;56.976;24.168;2023-08-31T13:51:29;3.50;;;3.15;;
22007;SDS011;11168;56.976;24.168;2023-08-31T13:53:56;4.00;;;2.90;;
22007;SDS011;11168;56.976;24.168;2023-08-31T13:56:23;3.42;;;3.10;;
22007;SDS011;11168;56.976;24.168;2023-08-31T13:58:50;4.28;;;3.70;;
22007;SDS011;11168;56.976;24.168;2023-08-31T14:01:17;5.22;;;4.20;;
22007;SDS011;11168;56.976;24.168;2023-08-31T14:03:44;8.00;;;4.35;;
22007;SDS011;11168;56.976;24.168;2023-08-31T14:06:12;6.35;;;4.03;;
22007;SDS011;11168;56.976;24.168;2023-08-31T14:08:40;6.85;;;4.15;;
22007;SDS011;11168;56.976;24.168;2023-08-31T14:11:07;9.00;;;4.13;;
22007;SDS011;11168;56.976;24.168;2023-08-31T14:13:34;5.13;;;4.60;;
22007;SDS011;11168;56.976;24.168;2023-08-31T14:16:01;5.75;;;4.40;;
22007;SDS011;11168;56.976;24.168;2023-08-31T14:18:29;7.25;;;4.68;;
22007;SDS011;11168;56.976;24.168;2023-08-31T14:20:58;5.78;;;5.18;;
22007;SDS011;11168;56.976;24.168;2023-08-31T14:23:27;7.78;;;4.90;;
22007;SDS011;11168;56.976;24.168;2023-08-31T14:26:02;6.40;;;4.93;;
22007;SDS011;11168;56.976;24.168;2023-08-31T14:28:30;9.32;;;5.53;;
22007;SDS011;11168;56.976;24.168;2023-08-31T14:30:57;6.78;;;5.68;;
22007;SDS011;11168;56.976;24.168;2023-08-31T14:33:31;6.88;;;5.22;;
22007;SDS011;11168;56.976;24.168;2023-08-31T14:35:58;6.03;;;5.28;;
22007;SDS011;11168;56.976;24.168;2023-08-31T14:38:25;9.43;;;4.55;;
22007;SDS011;11168;56.976;24.168;2023-08-31T14:41:03;5.25;;;4.15;;
22007;SDS011;11168;56.976;24.168;2023-08-31T14:43:33;5.97;;;3.80;;
22007;SDS011;11168;56.976;24.168;2023-08-31T14:46:00;5.47;;;4.05;;
22007;SDS011;11168;56.976;24.168;2023-08-31T14:48:27;6.07;;;4.00;;
22007;SDS011;11168;56.976;24.168;2023-08-31T14:50:55;4.90;;;4.07;;